Time;durP1;ratioP1;P1;durP2;ratioP2;P2;SDS_P1;SDS_P2;PMS_P1;PMS_P2;Temp;Humidity;BMP_temperature;BMP_pressure;BME280_temperature;BME280_humidity;BME280_pressure;Samples;Min_cycle;Max_cycle;Signal;HPM_P1;HPM_P2
2024/01/26 00:00:34;;;;;;;15.60;11.53;;;11.60;99.90;;;;;;5059374;28;20441;-58
2024/01/26 00:03:01;;;;;;;14.83;10.80;;;11.60;99.90;;;;;;5059400;28;20465;-58
2024/01/26 00:05:28;;;;;;;14.23;10.90;;;11.60;99.90;;;;;;5059074;28;20441;-58
2024/01/26 00:07:56;;;;;;;16.63;11.80;;;11.60;99.90;;;;;;5059244;28;20619;-58
2024/01/26 00:10:23;;;;;;;15.50;11.27;;;11.60;99.90;;;;;;5059391;28;20445;-58
2024/01/26 00:12:49;;;;;;;12.60;10.77;;;11.60;99.90;;;;;;5059752;28;20928;-58
2024/01/26 00:15:16;;;;;;;15.23;10.13;;;11.60;99.90;;;;;;5059190;28;20442;-58
2024/01/26 00:17:43;;;;;;;12.30;10.00;;;11.60;99.90;;;;;;5059198;28;20445;-58
2024/01/26 00:20:10;;;;;;;12.90;10.40;;;11.60;99.90;;;;;;5056554;28;20452;-58
2024/01/26 00:22:38;;;;;;;17.90;10.63;;;11.60;99.90;;;;;;5055930;28;20471;-58
2024/01/26 00:25:06;;;;;;;11.33;10.07;;;11.60;99.90;;;;;;5056328;28;20449;-58
2024/01/26 00:27:34;;;;;;;15.37;10.30;;;11.60;99.90;;;;;;5055918;28;20481;-58
2024/01/26 00:30:01;;;;;;;13.83;9.87;;;11.70;99.90;;;;;;5055918;28;20536;-58
2024/01/26 00:32:28;;;;;;;12.80;10.30;;;11.70;99.90;;;;;;5055777;28;20469;-58
2024/01/26 00:34:54;;;;;;;14.13;9.93;;;11.70;99.90;;;;;;5055596;28;20936;-58
2024/01/26 00:37:21;;;;;;;13.30;10.70;;;11.70;99.90;;;;;;5055771;28;20465;-58
2024/01/26 00:39:48;;;;;;;13.07;10.00;;;11.70;99.90;;;;;;5055578;28;20458;-58
2024/01/26 00:42:16;;;;;;;19.30;9.73;;;11.60;99.90;;;;;;5055647;28;20477;-58
2024/01/26 00:44:42;;;;;;;10.67;9.17;;;11.70;99.90;;;;;;5055711;28;20449;-58
2024/01/26 00:47:10;;;;;;;11.20;10.00;;;11.70;99.90;;;;;;5055547;28;20482;-58
2024/01/26 00:49:36;;;;;;;12.03;9.20;;;11.70;99.90;;;;;;5055612;28;20448;-58
2024/01/26 00:52:03;;;;;;;10.90;9.70;;;11.80;99.90;;;;;;5055193;28;20483;-58
2024/01/26 00:54:30;;;;;;;10.97;9.30;;;11.80;99.90;;;;;;5055532;28;20437;-58
2024/01/26 00:56:57;;;;;;;17.47;10.13;;;11.80;99.90;;;;;;5054966;28;20816;-58
2024/01/26 00:59:25;;;;;;;10.77;9.40;;;11.70;99.90;;;;;;5054983;28;20472;-57
2024/01/26 01:01:51;;;;;;;12.33;9.10;;;11.80;99.90;;;;;;5055102;28;20441;-58
2024/01/26 01:04:19;;;;;;;13.90;9.47;;;11.80;99.90;;;;;;5055251;28;20453;-58
2024/01/26 01:06:45;;;;;;;13.53;8.90;;;11.70;99.90;;;;;;5055072;28;20485;-58
2024/01/26 01:09:12;;;;;;;11.00;9.80;;;11.70;99.90;;;;;;5055309;28;20454;-58
2024/01/26 01:11:39;;;;;;;11.10;9.27;;;11.70;99.90;;;;;;5055115;28;20453;-58
2024/01/26 01:14:06;;;;;;;11.30;9.47;;;11.60;99.90;;;;;;5055032;28;20445;-58
2024/01/26 01:16:34;;;;;;;13.73;10.07;;;11.70;99.90;;;;;;5055039;28;20488;-58
2024/01/26 01:19:01;;;;;;;12.03;10.03;;;11.60;99.90;;;;;;5054897;28;20442;-59
2024/01/26 01:21:27;;;;;;;13.57;9.87;;;11.60;99.90;;;;;;5054882;28;20441;-58
2024/01/26 01:23:54;;;;;;;12.37;10.40;;;11.60;99.90;;;;;;5054901;28;20837;-59
2024/01/26 01:26:21;;;;;;;15.77;10.60;;;11.60;99.90;;;;;;5054544;28;21002;-58
2024/01/26 01:28:47;;;;;;;11.20;10.07;;;11.60;99.90;;;;;;5054874;28;20499;-58
2024/01/26 01:31:14;;;;;;;13.47;10.30;;;11.60;99.90;;;;;;5054712;28;20448;-58
2024/01/26 01:33:42;;;;;;;11.13;9.20;;;11.50;99.90;;;;;;5054487;28;20462;-58
2024/01/26 01:36:09;;;;;;;12.77;10.10;;;11.50;99.90;;;;;;5054666;28;20445;-59
2024/01/26 01:38:36;;;;;;;14.10;11.00;;;11.50;99.90;;;;;;5054680;28;20434;-58
2024/01/26 01:41:03;;;;;;;13.03;9.50;;;11.60;99.90;;;;;;5054604;28;20446;-59
2024/01/26 01:43:30;;;;;;;13.83;10.13;;;11.60;99.90;;;;;;5054115;28;20512;-59
2024/01/26 01:45:57;;;;;;;13.33;10.70;;;11.60;99.90;;;;;;5054827;28;20450;-59
2024/01/26 01:48:24;;;;;;;14.50;10.50;;;11.60;99.90;;;;;;5054446;28;20478;-59
2024/01/26 01:50:52;;;;;;;10.63;9.50;;;11.50;99.90;;;;;;5054344;28;20469;-59
2024/01/26 01:53:19;;;;;;;12.77;9.57;;;11.50;99.90;;;;;;5054008;28;20476;-59
2024/01/26 01:55:46;;;;;;;13.70;10.10;;;11.50;99.90;;;;;;5054160;28;20445;-58
2024/01/26 01:58:14;;;;;;;11.33;10.13;;;11.50;99.90;;;;;;5054267;28;20446;-58
2024/01/26 02:00:42;;;;;;;11.93;9.07;;;11.50;99.90;;;;;;5053968;28;20956;-58
2024/01/26 02:03:08;;;;;;;12.67;9.77;;;11.60;99.90;;;;;;5053804;28;20992;-59
2024/01/26 02:05:35;;;;;;;13.83;9.73;;;11.60;99.90;;;;;;5054108;28;20815;-59
2024/01/26 02:08:03;;;;;;;14.40;10.53;;;11.60;99.90;;;;;;5053751;28;20484;-59
2024/01/26 02:10:30;;;;;;;13.83;10.53;;;11.60;99.90;;;;;;5054063;28;20449;-58
2024/01/26 02:12:57;;;;;;;12.50;9.57;;;11.60;99.90;;;;;;5053943;28;20477;-58
2024/01/26 02:15:23;;;;;;;14.00;10.93;;;11.60;99.90;;;;;;5054081;28;20442;-58
2024/01/26 02:17:50;;;;;;;11.03;9.93;;;11.60;99.90;;;;;;5053926;28;20444;-58
2024/01/26 02:20:17;;;;;;;11.17;9.53;;;11.60;99.90;;;;;;5053756;28;20442;-58
2024/01/26 02:22:43;;;;;;;11.80;10.20;;;11.60;99.90;;;;;;5053764;28;20465;-58
2024/01/26 02:25:12;;;;;;;11.77;9.80;;;11.60;99.90;;;;;;5053495;28;20826;-58
2024/01/26 02:27:38;;;;;;;10.73;9.57;;;11.60;99.90;;;;;;5053717;28;21026;-58
2024/01/26 02:30:06;;;;;;;12.87;9.03;;;11.70;99.90;;;;;;5053680;28;20446;-58
2024/01/26 02:32:33;;;;;;;11.57;10.07;;;11.70;99.90;;;;;;5053478;28;20493;-58
2024/01/26 02:34:59;;;;;;;11.67;10.50;;;11.60;99.90;;;;;;5053860;28;20464;-58
2024/01/26 02:37:26;;;;;;;17.90;9.60;;;11.70;99.90;;;;;;5053651;28;20446;-58
2024/01/26 02:39:53;;;;;;;10.23;8.97;;;11.70;99.90;;;;;;5053731;28;20454;-58
2024/01/26 02:42:21;;;;;;;10.87;9.17;;;11.60;99.90;;;;;;5052982;28;20462;-58
2024/01/26 02:44:48;;;;;;;9.17;8.30;;;11.60;99.90;;;;;;5053499;28;20517;-58
2024/01/26 02:47:14;;;;;;;8.67;7.77;;;11.60;99.90;;;;;;5053391;28;20487;-58
2024/01/26 02:49:43;;;;;;;9.90;8.90;;;11.60;99.90;;;;;;5053474;28;20450;-58
2024/01/26 02:52:09;;;;;;;8.13;7.07;;;11.50;99.90;;;;;;5053256;28;20501;-58
2024/01/26 02:54:35;;;;;;;9.70;7.60;;;11.50;99.90;;;;;;5053471;28;20437;-58
2024/01/26 02:57:02;;;;;;;9.77;8.50;;;11.50;99.90;;;;;;5053440;28;20452;-58
2024/01/26 02:59:30;;;;;;;8.60;7.67;;;11.50;99.90;;;;;;5053230;28;20661;-58
2024/01/26 03:01:56;;;;;;;8.00;6.80;;;11.50;99.90;;;;;;5053177;28;20466;-58
2024/01/26 03:04:23;;;;;;;10.03;7.43;;;11.50;99.90;;;;;;5053207;28;20536;-58
2024/01/26 03:06:51;;;;;;;7.80;7.07;;;11.50;99.90;;;;;;5053413;28;20445;-58
2024/01/26 03:09:18;;;;;;;9.40;6.60;;;11.50;99.90;;;;;;5053084;28;20488;-57
2024/01/26 03:11:44;;;;;;;7.40;6.10;;;11.50;99.90;;;;;;5053168;28;20477;-58
2024/01/26 03:14:11;;;;;;;8.10;6.30;;;11.60;99.90;;;;;;5053202;28;20453;-58
2024/01/26 03:16:41;;;;;;;8.67;6.13;;;11.60;99.90;;;;;;5052780;28;20978;-58
2024/01/26 03:19:08;;;;;;;6.53;5.90;;;11.60;99.90;;;;;;5053216;28;20433;-58
2024/01/26 03:21:40;;;;;;;7.30;6.60;;;11.60;99.90;;;;;;5053371;28;20442;-57
2024/01/26 03:24:07;;;;;;;7.10;6.40;;;11.60;99.90;;;;;;5052793;28;20809;-58
2024/01/26 03:26:34;;;;;;;7.80;7.00;;;11.60;99.90;;;;;;5053019;28;20507;-57
2024/01/26 03:29:01;;;;;;;8.93;7.20;;;11.60;99.90;;;;;;5053051;28;20955;-58
2024/01/26 03:31:28;;;;;;;16.70;6.77;;;11.70;99.90;;;;;;5053319;28;20443;-57
2024/01/26 03:33:56;;;;;;;7.90;7.10;;;11.70;99.90;;;;;;5052733;28;20465;-57
2024/01/26 03:36:23;;;;;;;7.73;6.93;;;11.70;99.90;;;;;;5052766;28;20970;-57
2024/01/26 03:38:50;;;;;;;8.17;6.47;;;11.70;99.90;;;;;;5053095;28;20444;-57
2024/01/26 03:41:16;;;;;;;8.73;6.90;;;11.80;99.90;;;;;;5053012;28;20450;-57
2024/01/26 03:43:43;;;;;;;7.17;6.47;;;11.80;99.90;;;;;;5052728;28;20465;-57
2024/01/26 03:46:10;;;;;;;7.77;6.50;;;11.80;99.90;;;;;;5052983;28;20858;-58
2024/01/26 03:48:38;;;;;;;7.60;5.23;;;11.80;99.90;;;;;;5052585;28;20897;-57
2024/01/26 03:51:06;;;;;;;8.33;5.80;;;11.80;99.90;;;;;;5052758;28;20444;-57
2024/01/26 03:53:32;;;;;;;8.73;5.70;;;11.80;99.90;;;;;;5052500;28;20489;-58
2024/01/26 03:55:59;;;;;;;4.77;4.33;;;11.80;99.90;;;;;;5055465;28;20452;-57
2024/01/26 03:58:25;;;;;;;7.57;4.57;;;11.80;99.90;;;;;;5056311;28;20940;-57
2024/01/26 04:00:52;;;;;;;5.03;4.53;;;11.90;99.90;;;;;;5056307;28;20935;-57
2024/01/26 04:03:19;;;;;;;5.13;4.37;;;11.80;99.90;;;;;;5056507;28;20477;-57
2024/01/26 04:05:45;;;;;;;5.40;4.90;;;11.90;99.90;;;;;;5056739;28;20438;-57
2024/01/26 04:08:14;;;;;;;4.33;3.93;;;11.80;99.90;;;;;;5056439;28;20488;-57
2024/01/26 04:10:40;;;;;;;4.17;3.73;;;11.80;99.90;;;;;;5056287;28;20449;-57
2024/01/26 04:13:07;;;;;;;3.57;3.27;;;11.80;99.90;;;;;;5056227;28;20465;-57
2024/01/26 04:15:34;;;;;;;3.87;3.40;;;11.80;99.90;;;;;;5056341;28;20445;-57
2024/01/26 04:18:01;;;;;;;7.63;3.60;;;11.80;99.90;;;;;;5056073;28;20797;-57
2024/01/26 04:20:27;;;;;;;5.73;3.17;;;11.70;99.90;;;;;;5056378;28;20446;-57
2024/01/26 04:22:54;;;;;;;5.73;4.63;;;11.70;99.90;;;;;;5057002;28;20465;-57
2024/01/26 04:25:22;;;;;;;5.30;3.30;;;11.70;99.90;;;;;;5056175;28;20460;-57
2024/01/26 04:27:49;;;;;;;3.80;3.40;;;11.70;99.90;;;;;;5056162;28;20484;-56
2024/01/26 04:30:16;;;;;;;3.10;2.80;;;11.70;99.90;;;;;;5056023;28;20446;-57
2024/01/26 04:32:43;;;;;;;2.77;2.57;;;11.70;99.90;;;;;;5055604;28;20983;-58
2024/01/26 04:35:12;;;;;;;4.20;2.37;;;11.80;99.90;;;;;;5056018;28;20446;-57
2024/01/26 04:37:38;;;;;;;4.53;2.47;;;11.80;99.90;;;;;;5056018;28;20449;-58
2024/01/26 04:40:06;;;;;;;4.80;2.40;;;11.80;99.90;;;;;;5055669;28;20943;-57
2024/01/26 04:42:34;;;;;;;7.60;2.57;;;11.80;99.90;;;;;;5055444;28;20982;-58
2024/01/26 04:45:01;;;;;;;4.33;2.10;;;11.80;99.90;;;;;;5056018;28;20453;-57
2024/01/26 04:47:28;;;;;;;8.70;2.33;;;11.90;99.90;;;;;;5056005;28;20449;-58
2024/01/26 04:49:55;;;;;;;2.63;2.37;;;11.90;99.90;;;;;;5055701;28;20477;-58
2024/01/26 04:52:21;;;;;;;4.20;3.10;;;11.90;99.90;;;;;;5055352;28;20473;-58
2024/01/26 04:54:48;;;;;;;5.67;2.60;;;11.80;99.90;;;;;;5055387;28;20962;-58
2024/01/26 04:57:16;;;;;;;3.80;2.73;;;11.80;99.90;;;;;;5055833;28;20438;-57
2024/01/26 04:59:44;;;;;;;3.70;3.10;;;11.90;99.90;;;;;;5055559;28;20532;-57
2024/01/26 05:02:11;;;;;;;4.10;2.83;;;11.90;99.90;;;;;;5055014;28;21022;-57
2024/01/26 05:04:38;;;;;;;2.93;2.60;;;11.80;99.90;;;;;;5055373;28;20473;-57
2024/01/26 05:07:04;;;;;;;2.63;2.43;;;11.80;99.90;;;;;;5054798;28;20445;-57
2024/01/26 05:09:30;;;;;;;5.63;2.73;;;11.80;99.90;;;;;;5055198;28;20486;-57
2024/01/26 05:11:57;;;;;;;6.70;3.43;;;11.80;99.90;;;;;;5055088;28;20441;-57
2024/01/26 05:14:24;;;;;;;4.00;3.13;;;11.80;99.90;;;;;;5055441;28;20222;-57
2024/01/26 05:16:52;;;;;;;3.10;2.90;;;11.80;99.90;;;;;;5055346;28;20446;-57
2024/01/26 05:19:18;;;;;;;3.70;3.00;;;11.80;99.90;;;;;;5054979;28;20963;-57
2024/01/26 05:21:45;;;;;;;4.37;3.37;;;11.80;99.90;;;;;;5055118;28;20449;-58
2024/01/26 05:24:12;;;;;;;2.97;2.77;;;11.80;99.90;;;;;;5055140;28;20457;-57
2024/01/26 05:26:39;;;;;;;4.63;3.20;;;11.80;99.90;;;;;;5055121;28;20832;-57
2024/01/26 05:29:07;;;;;;;3.60;3.30;;;11.80;99.90;;;;;;5055063;28;20512;-57
2024/01/26 05:31:34;;;;;;;7.83;3.37;;;11.80;99.90;;;;;;5054842;28;20817;-57
2024/01/26 05:34:02;;;;;;;3.30;3.00;;;11.80;99.90;;;;;;5054758;28;20536;-57
2024/01/26 05:36:29;;;;;;;4.20;3.27;;;11.70;99.90;;;;;;5054736;28;20503;-57
2024/01/26 05:38:55;;;;;;;4.53;3.17;;;11.70;99.90;;;;;;5054857;28;20927;-57
2024/01/26 05:41:22;;;;;;;3.90;3.50;;;11.70;99.90;;;;;;5054729;28;20536;-57
2024/01/26 05:43:50;;;;;;;3.07;2.80;;;11.70;99.90;;;;;;5054295;28;20813;-57
2024/01/26 05:46:17;;;;;;;2.80;2.43;;;11.60;99.90;;;;;;5054567;28;20446;-57
2024/01/26 05:48:44;;;;;;;5.50;3.57;;;11.60;99.90;;;;;;5054430;28;20478;-57
2024/01/26 05:51:12;;;;;;;3.30;2.80;;;11.60;99.90;;;;;;5054329;28;20446;-57
2024/01/26 05:53:39;;;;;;;4.03;2.90;;;11.70;99.90;;;;;;5054114;28;20821;-57
2024/01/26 05:56:06;;;;;;;4.53;3.30;;;11.70;99.90;;;;;;5054351;28;20515;-57
2024/01/26 05:58:33;;;;;;;4.27;2.97;;;11.70;99.90;;;;;;5054524;28;20434;-57
2024/01/26 06:00:59;;;;;;;3.47;3.17;;;11.70;99.90;;;;;;5054294;28;20474;-57
2024/01/26 06:03:26;;;;;;;3.80;3.50;;;11.70;99.90;;;;;;5054082;28;20519;-57
2024/01/26 06:05:53;;;;;;;4.33;3.10;;;11.70;99.90;;;;;;5053824;28;20955;-57
2024/01/26 06:08:21;;;;;;;4.43;3.13;;;11.60;99.90;;;;;;5054141;28;20481;-57
2024/01/26 06:10:48;;;;;;;3.67;2.73;;;11.60;99.90;;;;;;5053975;28;20970;-57
2024/01/26 06:13:15;;;;;;;3.10;2.80;;;11.70;99.90;;;;;;5053919;28;20470;-57
2024/01/26 06:15:42;;;;;;;2.40;2.20;;;11.70;99.90;;;;;;5053944;28;20461;-57
2024/01/26 06:18:08;;;;;;;2.57;2.37;;;11.70;99.90;;;;;;5053205;28;20442;-57
2024/01/26 06:20:35;;;;;;;7.80;3.27;;;11.70;99.90;;;;;;5053882;28;20449;-57
2024/01/26 06:23:02;;;;;;;3.53;2.60;;;11.70;99.90;;;;;;5053586;28;20465;-57
2024/01/26 06:25:30;;;;;;;2.97;2.60;;;11.70;99.90;;;;;;5053797;28;20446;-57
2024/01/26 06:27:57;;;;;;;3.67;2.77;;;11.70;99.90;;;;;;5053564;28;20442;-57
2024/01/26 06:30:24;;;;;;;9.03;3.20;;;11.70;99.90;;;;;;5053941;28;20512;-57
2024/01/26 06:32:51;;;;;;;6.40;2.60;;;11.70;99.90;;;;;;5053533;28;20461;-57
2024/01/26 06:35:18;;;;;;;4.70;2.27;;;11.70;99.90;;;;;;5059532;28;20441;-57
2024/01/26 06:37:45;;;;;;;4.07;2.43;;;11.80;99.90;;;;;;5073334;28;20441;-57
2024/01/26 06:40:13;;;;;;;3.63;2.17;;;11.80;99.90;;;;;;5055060;28;20456;-57
2024/01/26 06:42:42;;;;;;;2.33;2.17;;;11.80;99.90;;;;;;5053437;28;20466;-57
2024/01/26 06:45:10;;;;;;;2.97;2.27;;;11.80;99.90;;;;;;5053489;28;20447;-58
2024/01/26 06:47:36;;;;;;;4.77;2.73;;;11.90;99.90;;;;;;5053082;28;20958;-58
2024/01/26 06:50:04;;;;;;;2.10;1.90;;;11.90;99.90;;;;;;5053275;28;20500;-58
2024/01/26 06:52:31;;;;;;;6.53;2.63;;;11.90;99.90;;;;;;5052975;28;20485;-59
2024/01/26 06:54:57;;;;;;;3.47;2.20;;;11.90;99.90;;;;;;5053025;28;20809;-59
2024/01/26 06:57:24;;;;;;;7.53;2.63;;;11.90;99.90;;;;;;5053594;28;20449;-59
2024/01/26 06:59:52;;;;;;;4.03;1.90;;;11.90;99.90;;;;;;5053259;28;20449;-59
2024/01/26 07:02:19;;;;;;;2.60;2.03;;;11.90;99.90;;;;;;5053281;28;20465;-59
2024/01/26 07:04:46;;;;;;;2.00;1.73;;;11.90;99.90;;;;;;5053283;28;20485;-58
2024/01/26 07:07:12;;;;;;;5.00;1.90;;;11.90;99.90;;;;;;5053265;28;20458;-59
2024/01/26 07:09:39;;;;;;;2.03;1.43;;;11.90;99.90;;;;;;5052795;28;20852;-59
2024/01/26 07:12:06;;;;;;;2.40;1.50;;;12.00;99.90;;;;;;5053114;28;20492;-59
2024/01/26 07:14:33;;;;;;;2.20;1.67;;;12.00;99.90;;;;;;5053335;28;20449;-59
2024/01/26 07:17:01;;;;;;;1.73;1.63;;;12.00;99.90;;;;;;5053261;28;20438;-59
2024/01/26 07:19:27;;;;;;;2.60;1.97;;;12.00;99.90;;;;;;5053122;28;20481;-59
2024/01/26 07:21:54;;;;;;;2.30;2.10;;;12.00;99.90;;;;;;5053044;28;20445;-59
2024/01/26 07:24:21;;;;;;;4.30;1.97;;;12.00;99.90;;;;;;5052681;28;20448;-59
2024/01/26 07:26:48;;;;;;;4.47;2.37;;;12.00;99.90;;;;;;5052921;28;20453;-59
2024/01/26 07:29:14;;;;;;;5.30;2.40;;;12.00;99.90;;;;;;5054556;28;20852;-59
2024/01/26 07:31:43;;;;;;;2.53;1.77;;;12.00;99.90;;;;;;5056886;28;20445;-60
2024/01/26 07:34:11;;;;;;;6.73;2.70;;;12.00;99.90;;;;;;5056941;28;20450;-59
2024/01/26 07:36:37;;;;;;;4.53;2.23;;;12.10;99.90;;;;;;5056985;28;20446;-59
2024/01/26 07:39:05;;;;;;;3.00;2.50;;;12.10;99.90;;;;;;5056991;28;20441;-59
2024/01/26 07:41:32;;;;;;;5.27;2.90;;;12.10;99.90;;;;;;5056947;28;20552;-59
2024/01/26 07:43:59;;;;;;;4.37;3.20;;;12.10;99.90;;;;;;5056912;28;20511;-59
2024/01/26 07:46:26;;;;;;;6.20;3.53;;;12.00;99.90;;;;;;5056707;28;20906;-60
2024/01/26 07:48:53;;;;;;;5.03;3.70;;;12.00;99.90;;;;;;5057138;28;20469;-59
2024/01/26 07:51:21;;;;;;;4.83;3.53;;;12.00;99.90;;;;;;5057160;28;20441;-59
2024/01/26 07:53:48;;;;;;;5.93;3.47;;;11.90;99.90;;;;;;5056315;28;20473;-59
2024/01/26 07:56:15;;;;;;;4.87;3.83;;;11.90;99.90;;;;;;5056604;28;20528;-59
2024/01/26 07:58:41;;;;;;;4.20;3.77;;;11.90;99.90;;;;;;5056709;28;20481;-59
2024/01/26 08:01:09;;;;;;;8.60;3.63;;;11.90;99.90;;;;;;5056131;28;20441;-59
2024/01/26 08:03:36;;;;;;;7.50;4.30;;;11.90;99.90;;;;;;5056414;28;20466;-59
2024/01/26 08:06:02;;;;;;;6.83;3.57;;;11.80;99.90;;;;;;5056492;28;20460;-59
2024/01/26 08:08:31;;;;;;;4.20;3.80;;;11.80;99.90;;;;;;5056379;28;20445;-60
2024/01/26 08:10:57;;;;;;;5.23;3.70;;;11.80;99.90;;;;;;5056316;28;20511;-59
2024/01/26 08:13:24;;;;;;;5.03;3.87;;;11.80;99.90;;;;;;5056216;28;20461;-59
2024/01/26 08:15:51;;;;;;;4.43;3.67;;;11.80;99.90;;;;;;5056396;28;20544;-59
2024/01/26 08:18:18;;;;;;;4.83;3.30;;;11.90;99.90;;;;;;5056208;28;20445;-59
2024/01/26 08:20:45;;;;;;;4.13;3.73;;;11.90;99.90;;;;;;5056275;28;20452;-59
2024/01/26 08:23:12;;;;;;;4.83;2.73;;;11.80;99.90;;;;;;5056144;28;20477;-59
2024/01/26 08:25:40;;;;;;;6.20;3.37;;;11.90;99.90;;;;;;5056146;28;20450;-59
2024/01/26 08:28:07;;;;;;;2.87;2.57;;;11.90;99.90;;;;;;5056403;28;20437;-59
2024/01/26 08:30:34;;;;;;;3.40;3.10;;;11.90;99.90;;;;;;5056100;28;20509;-59
2024/01/26 08:33:01;;;;;;;6.00;3.03;;;11.90;99.90;;;;;;5055900;28;20465;-59
2024/01/26 08:35:28;;;;;;;3.23;2.93;;;11.90;99.90;;;;;;5056145;28;20517;-58
2024/01/26 08:37:54;;;;;;;3.63;2.90;;;11.90;99.90;;;;;;5055948;28;20453;-59
2024/01/26 08:40:21;;;;;;;2.70;2.37;;;11.90;99.90;;;;;;5055094;28;20446;-58
2024/01/26 08:42:49;;;;;;;3.40;2.73;;;11.90;99.90;;;;;;5055563;28;20461;-58
2024/01/26 08:45:16;;;;;;;3.23;2.83;;;11.90;99.90;;;;;;5055865;28;20501;-58
2024/01/26 08:47:42;;;;;;;3.13;2.83;;;12.00;99.90;;;;;;5055800;28;20448;-58
2024/01/26 08:50:11;;;;;;;2.50;2.20;;;12.00;99.90;;;;;;5055518;28;20481;-58
2024/01/26 08:52:37;;;;;;;2.50;2.13;;;12.00;99.90;;;;;;5055186;28;20509;-58
2024/01/26 08:55:05;;;;;;;4.87;3.20;;;12.00;99.90;;;;;;5055277;28;20469;-58
2024/01/26 08:57:32;;;;;;;2.80;2.60;;;12.10;99.90;;;;;;5055630;28;20519;-58
2024/01/26 09:00:03;;;;;;;4.20;2.20;;;12.10;99.90;;;;;;5055515;28;20441;-58
2024/01/26 09:02:30;;;;;;;2.13;2.03;;;12.10;99.90;;;;;;5055473;28;20497;-58
2024/01/26 09:04:57;;;;;;;3.60;2.63;;;12.10;99.90;;;;;;5055322;28;20446;-58
2024/01/26 09:07:24;;;;;;;3.23;2.67;;;12.10;99.90;;;;;;5055444;28;20442;-59
2024/01/26 09:09:51;;;;;;;2.70;2.50;;;12.10;99.90;;;;;;5055024;28;20521;-59
2024/01/26 09:12:18;;;;;;;2.70;2.50;;;12.10;99.90;;;;;;5055075;28;20470;-59
2024/01/26 09:14:44;;;;;;;2.80;2.60;;;12.10;99.90;;;;;;5055136;28;20449;-59
2024/01/26 09:17:12;;;;;;;2.73;2.53;;;12.10;99.90;;;;;;5055144;28;20858;-59
2024/01/26 09:19:39;;;;;;;2.70;2.50;;;12.10;99.90;;;;;;5055151;28;20438;-59
2024/01/26 09:22:07;;;;;;;3.47;2.33;;;12.10;99.90;;;;;;5054677;28;20470;-59
2024/01/26 09:24:34;;;;;;;3.30;3.00;;;12.10;99.90;;;;;;5055057;28;20446;-59
2024/01/26 09:27:01;;;;;;;3.40;2.60;;;12.00;99.90;;;;;;5054990;28;20528;-59
2024/01/26 09:29:28;;;;;;;3.77;3.20;;;12.10;99.90;;;;;;5054544;28;20477;-59
2024/01/26 09:31:56;;;;;;;5.00;3.30;;;12.10;99.90;;;;;;5054869;28;20450;-59
2024/01/26 09:34:24;;;;;;;3.13;2.93;;;12.10;99.90;;;;;;5054450;28;20449;-59
2024/01/26 09:36:51;;;;;;;3.37;3.00;;;12.20;99.90;;;;;;5054822;28;20442;-59
2024/01/26 09:39:18;;;;;;;5.90;3.10;;;12.20;99.90;;;;;;5054782;28;20446;-59
2024/01/26 09:41:45;;;;;;;3.77;2.93;;;12.20;99.90;;;;;;5054619;28;20473;-59
2024/01/26 09:44:11;;;;;;;2.90;2.70;;;12.20;99.90;;;;;;5054738;28;20449;-59
2024/01/26 09:46:38;;;;;;;4.80;3.60;;;12.30;99.90;;;;;;5054701;28;20450;-59
2024/01/26 09:49:09;;;;;;;3.53;3.10;;;12.40;99.90;;;;;;5054909;28;20445;-58
2024/01/26 09:51:38;;;;;;;3.50;3.20;;;12.40;99.90;;;;;;5053967;28;20892;-59
2024/01/26 09:54:08;;;;;;;5.00;3.13;;;12.50;99.90;;;;;;5054250;28;20519;-59
2024/01/26 09:56:37;;;;;;;2.97;2.70;;;12.50;99.90;;;;;;5054383;28;20446;-59
2024/01/26 09:59:04;;;;;;;3.67;2.90;;;12.60;99.90;;;;;;5054394;28;20499;-59
2024/01/26 10:01:34;;;;;;;3.90;2.97;;;12.60;99.90;;;;;;5054006;28;20466;-59
2024/01/26 10:04:01;;;;;;;3.37;3.17;;;12.60;99.90;;;;;;5054317;28;20493;-59
2024/01/26 10:06:28;;;;;;;3.20;2.77;;;12.50;99.90;;;;;;5054213;28;20434;-59
2024/01/26 10:08:56;;;;;;;3.70;3.13;;;12.50;99.90;;;;;;5055048;28;20446;-59
2024/01/26 10:11:23;;;;;;;4.03;3.10;;;12.50;99.90;;;;;;5054182;28;20521;-58
2024/01/26 10:13:49;;;;;;;3.00;2.70;;;12.50;99.90;;;;;;5053664;28;20975;-58
2024/01/26 10:16:16;;;;;;;4.73;3.03;;;12.50;99.90;;;;;;5054051;28;20511;-58
2024/01/26 10:18:44;;;;;;;2.57;2.43;;;12.50;99.90;;;;;;5053949;28;20453;-59
2024/01/26 10:21:11;;;;;;;3.10;2.80;;;12.60;99.90;;;;;;5053859;28;20429;-58
2024/01/26 10:23:38;;;;;;;2.90;2.70;;;12.60;99.90;;;;;;5053977;28;20488;-59
2024/01/26 10:26:06;;;;;;;3.23;2.97;;;12.60;99.90;;;;;;5053920;28;20804;-59
2024/01/26 10:28:33;;;;;;;2.93;2.67;;;12.50;99.90;;;;;;5053795;28;20440;-59
2024/01/26 10:31:01;;;;;;;3.43;3.13;;;12.50;99.90;;;;;;5053720;28;20484;-59
2024/01/26 10:33:31;;;;;;;3.87;3.47;;;12.60;99.90;;;;;;5053174;28;20517;-59
2024/01/26 10:36:00;;;;;;;5.10;3.17;;;12.60;99.90;;;;;;5053693;28;20456;-59
2024/01/26 10:38:30;;;;;;;3.83;3.03;;;12.60;99.90;;;;;;5053759;28;20445;-59
2024/01/26 10:41:01;;;;;;;3.77;3.47;;;12.60;99.90;;;;;;5053717;28;20428;-59
2024/01/26 10:43:29;;;;;;;3.90;3.50;;;12.60;99.90;;;;;;5053264;28;20967;-59
2024/01/26 10:45:57;;;;;;;4.17;3.63;;;12.60;99.90;;;;;;5056800;28;20437;-60
2024/01/26 10:48:25;;;;;;;5.53;3.70;;;12.50;99.90;;;;;;5073627;28;20799;-59
2024/01/26 10:50:53;;;;;;;4.10;2.50;;;12.40;99.90;;;;;;5073334;28;21009;-59
2024/01/26 10:53:21;;;;;;;3.37;2.00;;;12.30;99.90;;;;;;5073037;28;20468;-59
2024/01/26 10:55:50;;;;;;;3.23;2.13;;;12.20;99.90;;;;;;5073521;28;20459;-59
2024/01/26 10:58:17;;;;;;;3.50;1.30;;;12.10;99.90;;;;;;5073447;28;20455;-59
2024/01/26 11:00:45;;;;;;;4.03;1.50;;;12.10;99.90;;;;;;5073423;28;20440;-58
2024/01/26 11:03:12;;;;;;;5.10;1.90;;;11.90;99.90;;;;;;5073074;28;20841;-58
2024/01/26 11:05:39;;;;;;;4.97;1.33;;;11.90;99.90;;;;;;5073136;28;20977;-57
2024/01/26 11:08:18;;;;;;;4.40;2.43;;;12.00;99.90;;;;;;5073541;28;20828;-58
2024/01/26 11:10:47;;;;;;;4.20;2.50;;;11.90;99.90;;;;;;5073634;28;20464;-58
2024/01/26 11:13:16;;;;;;;4.03;1.80;;;11.90;99.90;;;;;;5073226;28;21040;-58
2024/01/26 11:15:46;;;;;;;2.97;1.10;;;11.90;99.90;;;;;;5073326;28;20448;-58
2024/01/26 11:18:22;;;;;;;7.47;1.97;;;11.90;99.90;;;;;;5073526;28;20961;-58
2024/01/26 11:20:49;;;;;;;4.63;1.60;;;12.10;99.90;;;;;;5073317;28;20429;-58
2024/01/26 11:23:16;;;;;;;4.47;1.57;;;12.20;99.90;;;;;;5073372;28;20468;-58
2024/01/26 11:25:45;;;;;;;5.53;2.20;;;12.30;99.90;;;;;;5073277;28;20453;-58
2024/01/26 11:28:14;;;;;;;5.80;1.60;;;12.30;99.90;;;;;;5072883;28;20963;-57
2024/01/26 11:30:43;;;;;;;6.63;1.97;;;12.40;99.90;;;;;;5073442;28;20510;-58
2024/01/26 11:33:18;;;;;;;1.43;1.20;;;12.40;99.90;;;;;;5073161;28;20488;-57
2024/01/26 11:35:45;;;;;;;6.30;1.50;;;12.50;99.90;;;;;;5072743;28;20440;-57
2024/01/26 11:38:12;;;;;;;4.80;1.80;;;12.50;99.90;;;;;;5073359;28;20444;-57
2024/01/26 11:40:40;;;;;;;4.83;1.60;;;12.70;99.90;;;;;;5073095;28;20445;-57
2024/01/26 11:43:09;;;;;;;8.30;1.80;;;12.80;99.90;;;;;;5072878;28;20503;-57
2024/01/26 11:45:42;;;;;;;7.47;2.83;;;12.80;99.90;;;;;;5073134;28;20449;-57
2024/01/26 11:48:10;;;;;;;4.27;1.50;;;12.80;99.90;;;;;;5073498;28;20425;-57
2024/01/26 11:50:40;;;;;;;6.07;1.20;;;12.70;99.90;;;;;;5072912;28;21016;-57
2024/01/26 11:53:07;;;;;;;9.97;2.13;;;12.60;99.90;;;;;;5073124;28;20480;-57
2024/01/26 11:55:34;;;;;;;2.40;1.10;;;12.50;99.90;;;;;;5073946;28;20447;-57
2024/01/26 11:58:01;;;;;;;3.53;1.20;;;12.50;99.90;;;;;;5073748;28;20950;-57
2024/01/26 12:00:29;;;;;;;5.43;1.40;;;12.70;99.90;;;;;;5073759;28;20954;-57
2024/01/26 12:02:56;;;;;;;7.97;1.10;;;13.00;99.60;;;;;;5073634;28;20524;-57
2024/01/26 12:05:22;;;;;;;9.00;1.97;;;13.00;98.00;;;;;;5073112;28;20448;-57
2024/01/26 12:07:50;;;;;;;6.80;1.33;;;12.80;98.30;;;;;;5073477;28;20479;-57
2024/01/26 12:10:17;;;;;;;5.20;1.13;;;12.60;98.60;;;;;;5072854;28;20484;-57
2024/01/26 12:12:47;;;;;;;8.43;2.10;;;12.80;98.40;;;;;;5072343;28;20461;-57
2024/01/26 12:15:14;;;;;;;6.37;1.33;;;12.90;97.10;;;;;;5072576;28;20512;-57
2024/01/26 12:17:41;;;;;;;5.20;0.90;;;13.10;95.70;;;;;;5074973;28;20839;-57
2024/01/26 12:20:10;;;;;;;7.13;1.60;;;13.20;94.10;;;;;;5072439;28;20468;-56
2024/01/26 12:22:37;;;;;;;2.67;1.00;;;13.40;93.80;;;;;;5076498;28;20497;-57
2024/01/26 12:25:07;;;;;;;3.80;1.07;;;13.40;93.70;;;;;;5076266;28;20448;-58
2024/01/26 12:27:34;;;;;;;2.47;1.10;;;13.50;91.40;;;;;;5077276;28;20448;-57
2024/01/26 12:30:01;;;;;;;2.80;0.90;;;13.50;91.20;;;;;;5076053;28;20491;-57
2024/01/26 12:32:28;;;;;;;5.00;1.50;;;13.50;90.80;;;;;;5075954;28;20469;-57
2024/01/26 12:34:54;;;;;;;7.00;1.43;;;13.70;90.70;;;;;;5073623;28;20844;-56
2024/01/26 12:37:21;;;;;;;7.47;1.53;;;13.80;90.40;;;;;;5075955;28;20451;-57
2024/01/26 12:39:48;;;;;;;5.00;1.00;;;14.00;89.20;;;;;;5075947;28;20455;-57
2024/01/26 12:42:16;;;;;;;6.50;1.33;;;13.90;88.70;;;;;;5076641;28;20562;-57